Time;durP1;ratioP1;P1;durP2;ratioP2;P2;SDS_P1;SDS_P2;PMS_P1;PMS_P2;Temp;Humidity;BMP_temperature;BMP_pressure;BME280_temperature;BME280_humidity;BME280_pressure;Samples;Min_cycle;Max_cycle;Signal;HPM_P1;HPM_P2
2023/05/13 00:02:25;;;;;;;0.10;0.10;;;;;;;;;;4950352;28;20047;-86
2023/05/13 00:04:54;;;;;;;0.10;0.10;;;;;;;;;;4953061;28;20059;-86
2023/05/13 00:07:20;;;;;;;0.13;0.13;;;;;;;;;;4949746;28;20510;-86
2023/05/13 00:09:46;;;;;;;0.10;0.10;;;;;;;;;;4953738;28;20137;-86
2023/05/13 00:12:12;;;;;;;0.10;0.10;;;;;;;;;;4948543;29;20137;-86
2023/05/13 00:14:39;;;;;;;0.10;0.10;;;;;;;;;;4944602;28;20129;-86
2023/05/13 00:17:05;;;;;;;0.13;0.13;;;;;;;;;;4959303;28;20105;-85
2023/05/13 00:19:33;;;;;;;0.15;0.15;;;;;;;;;;4947633;28;20184;-86
2023/05/13 00:22:00;;;;;;;0.20;0.20;;;;;;;;;;4947883;28;20122;-86
2023/05/13 00:24:26;;;;;;;0.20;0.20;;;;;;;;;;4954008;28;20451;-86
2023/05/13 00:26:53;;;;;;;0.20;0.20;;;;;;;;;;4953437;28;20051;-85
2023/05/13 00:29:19;;;;;;;0.10;0.10;;;;;;;;;;4938517;29;20399;-85
2023/05/13 00:31:45;;;;;;;0.17;0.17;;;;;;;;;;4935128;29;20254;-85
2023/05/13 00:34:11;;;;;;;0.20;0.20;;;;;;;;;;4956203;28;20122;-84
2023/05/13 00:36:40;;;;;;;0.10;0.10;;;;;;;;;;4953558;28;20070;-85
2023/05/13 00:39:06;;;;;;;0.20;0.20;;;;;;;;;;4968776;28;20062;-85
2023/05/13 00:41:32;;;;;;;0.10;0.10;;;;;;;;;;4957355;28;20035;-86
2023/05/13 00:43:58;;;;;;;0.10;0.10;;;;;;;;;;4944683;28;20047;-85
2023/05/13 00:46:24;;;;;;;0.20;0.20;;;;;;;;;;4962526;28;20050;-85
2023/05/13 00:48:51;;;;;;;0.10;0.10;;;;;;;;;;4944302;28;20480;-85
2023/05/13 00:51:17;;;;;;;0.20;0.20;;;;;;;;;;4971083;28;20043;-85
2023/05/13 00:53:44;;;;;;;0.20;0.20;;;;;;;;;;4952587;28;20046;-85
2023/05/13 00:56:10;;;;;;;0.20;0.20;;;;;;;;;;4956410;28;20046;-85
2023/05/13 00:58:36;;;;;;;0.15;0.15;;;;;;;;;;4951330;28;20074;-86
2023/05/13 01:01:11;;;;;;;0.10;0.10;;;;;;;;;;4969569;28;20079;-85
2023/05/13 01:03:40;;;;;;;0.10;0.10;;;;;;;;;;4954328;28;20046;-85
2023/05/13 01:06:32;;;;;;;0.20;0.20;;;;;;;;;;4957249;28;20050;-86
2023/05/13 01:09:04;;;;;;;0.13;0.13;;;;;;;;;;4962081;28;20114;-85
2023/05/13 01:11:34;;;;;;;0.20;0.20;;;;;;;;;;4980164;28;20122;-86
2023/05/13 01:14:08;;;;;;;0.20;0.20;;;;;;;;;;4961685;28;20047;-85
2023/05/13 01:16:40;;;;;;;0.20;0.20;;;;;;;;;;4936171;28;20043;-85
2023/05/13 01:19:24;;;;;;;0.20;0.20;;;;;;;;;;4952927;28;20533;-85
2023/05/13 01:21:54;;;;;;;0.10;0.10;;;;;;;;;;4971202;28;20121;-85
2023/05/13 01:24:21;;;;;;;0.13;0.13;;;;;;;;;;4968343;28;20078;-85
2023/05/13 01:26:47;;;;;;;0.20;0.20;;;;;;;;;;4948688;28;20042;-85
2023/05/13 01:29:13;;;;;;;0.10;0.10;;;;;;;;;;4955659;28;20151;-85
2023/05/13 01:31:41;;;;;;;0.20;0.20;;;;;;;;;;4974730;28;20070;-85
2023/05/13 01:34:09;;;;;;;0.17;0.17;;;;;;;;;;4957679;28;20070;-86
2023/05/13 01:36:35;;;;;;;0.20;0.20;;;;;;;;;;4973432;28;20458;-86
2023/05/13 01:39:02;;;;;;;0.10;0.10;;;;;;;;;;4969572;28;20051;-86
2023/05/13 01:41:28;;;;;;;0.20;0.20;;;;;;;;;;4954147;28;20046;-85
2023/05/13 01:43:54;;;;;;;0.20;0.20;;;;;;;;;;4959488;28;20547;-85
2023/05/13 01:46:23;;;;;;;0.15;0.15;;;;;;;;;;4953180;28;20506;-86
2023/05/13 01:48:49;;;;;;;0.20;0.20;;;;;;;;;;4938453;28;20136;-86
2023/05/13 01:51:15;;;;;;;0.10;0.10;;;;;;;;;;4952928;28;20042;-86
2023/05/13 01:53:41;;;;;;;0.15;0.15;;;;;;;;;;4946024;28;20051;-86
2023/05/13 01:56:10;;;;;;;0.10;0.10;;;;;;;;;;4968108;28;20039;-86
2023/05/13 01:58:36;;;;;;;0.20;0.20;;;;;;;;;;4966472;28;20043;-84
2023/05/13 02:01:03;;;;;;;0.10;0.10;;;;;;;;;;4946950;28;20050;-85
2023/05/13 02:03:29;;;;;;;0.10;0.10;;;;;;;;;;4956523;28;20047;-86
2023/05/13 02:05:55;;;;;;;0.13;0.13;;;;;;;;;;4956342;28;20047;-86
2023/05/13 02:08:22;;;;;;;0.20;0.20;;;;;;;;;;4951033;28;20047;-86
2023/05/13 02:10:55;;;;;;;0.10;0.10;;;;;;;;;;4946046;28;20130;-85
2023/05/13 02:13:21;;;;;;;0.10;0.10;;;;;;;;;;4969551;28;20047;-86
2023/05/13 02:15:47;;;;;;;0.10;0.10;;;;;;;;;;4961223;28;20057;-87
2023/05/13 02:18:13;;;;;;;0.10;0.10;;;;;;;;;;4947899;28;20829;-87
2023/05/13 02:20:39;;;;;;;0.20;0.20;;;;;;;;;;4954648;28;20042;-86
2023/05/13 02:23:06;;;;;;;0.10;0.10;;;;;;;;;;4974178;28;20134;-86
2023/05/13 02:25:32;;;;;;;0.20;0.20;;;;;;;;;;4954621;28;20059;-86
2023/05/13 02:27:58;;;;;;;0.20;0.20;;;;;;;;;;4971650;28;20070;-86
2023/05/13 02:30:25;;;;;;;0.10;0.10;;;;;;;;;;4970523;28;20154;-86
2023/05/13 02:32:52;;;;;;;0.10;0.10;;;;;;;;;;4941624;28;20114;-87
2023/05/13 02:35:18;;;;;;;0.13;0.13;;;;;;;;;;4971208;28;20483;-85
2023/05/13 02:37:45;;;;;;;0.10;0.10;;;;;;;;;;4966409;28;20054;-85
2023/05/13 02:40:11;;;;;;;0.10;0.10;;;;;;;;;;4944989;28;20434;-86
2023/05/13 02:42:37;;;;;;;0.10;0.10;;;;;;;;;;4962329;28;20074;-86
2023/05/13 02:45:03;;;;;;;0.13;0.13;;;;;;;;;;4975605;28;20042;-87
2023/05/13 02:47:29;;;;;;;0.10;0.10;;;;;;;;;;4992668;28;20047;-86
2023/05/13 02:49:56;;;;;;;0.10;0.10;;;;;;;;;;4968172;28;20107;-86
2023/05/13 02:52:22;;;;;;;0.10;0.10;;;;;;;;;;4938259;29;20052;-86
2023/05/13 02:54:48;;;;;;;0.10;0.10;;;;;;;;;;4952158;28;20130;-86
2023/05/13 02:57:14;;;;;;;0.20;0.20;;;;;;;;;;4971766;28;20123;-87
2023/05/13 02:59:40;;;;;;;0.10;0.10;;;;;;;;;;4943622;28;20122;-85
2023/05/13 03:02:06;;;;;;;0.10;0.10;;;;;;;;;;4969488;28;20078;-85
2023/05/13 03:04:32;;;;;;;0.10;0.10;;;;;;;;;;4965325;28;20050;-86
2023/05/13 03:06:58;;;;;;;0.17;0.17;;;;;;;;;;4954403;28;20105;-84
2023/05/13 03:09:24;;;;;;;0.10;0.10;;;;;;;;;;4946737;28;20043;-86
2023/05/13 03:11:50;;;;;;;0.10;0.10;;;;;;;;;;4953606;28;20054;-86
2023/05/13 03:14:16;;;;;;;0.20;0.20;;;;;;;;;;4957373;28;20043;-85
2023/05/13 03:16:43;;;;;;;0.20;0.20;;;;;;;;;;4955253;28;20050;-87
2023/05/13 03:19:09;;;;;;;0.20;0.20;;;;;;;;;;4949239;28;20059;-86
2023/05/13 03:21:38;;;;;;;0.10;0.10;;;;;;;;;;4954468;28;20045;-86
2023/05/13 03:24:04;;;;;;;0.20;0.20;;;;;;;;;;4954976;28;20096;-85
2023/05/13 03:26:30;;;;;;;0.20;0.20;;;;;;;;;;4969198;28;20122;-86
2023/05/13 03:28:57;;;;;;;0.10;0.10;;;;;;;;;;4963422;28;20534;-87
2023/05/13 03:31:23;;;;;;;0.10;0.10;;;;;;;;;;4972024;28;20073;-87
2023/05/13 03:33:51;;;;;;;0.13;0.13;;;;;;;;;;4955785;28;20527;-86
2023/05/13 03:36:17;;;;;;;0.10;0.10;;;;;;;;;;4954570;28;20062;-86
2023/05/13 03:38:43;;;;;;;0.10;0.10;;;;;;;;;;4968969;28;20043;-86
2023/05/13 03:41:10;;;;;;;0.10;0.10;;;;;;;;;;4945226;29;20047;-86
2023/05/13 03:43:41;;;;;;;0.20;0.20;;;;;;;;;;4950464;28;20070;-86
2023/05/13 03:46:07;;;;;;;0.17;0.17;;;;;;;;;;4954245;28;20051;-86
2023/05/13 03:48:33;;;;;;;0.20;0.20;;;;;;;;;;4938022;28;20051;-86
2023/05/13 03:50:59;;;;;;;0.20;0.20;;;;;;;;;;4965128;28;20074;-86
2023/05/13 03:53:25;;;;;;;0.20;0.20;;;;;;;;;;4972674;28;20046;-86
2023/05/13 03:55:51;;;;;;;0.20;0.20;;;;;;;;;;4971916;28;20495;-86
2023/05/13 03:58:18;;;;;;;0.20;0.20;;;;;;;;;;4953512;28;20130;-86
2023/05/13 04:00:45;;;;;;;0.20;0.20;;;;;;;;;;4936333;29;20054;-85
2023/05/13 04:03:11;;;;;;;0.10;0.10;;;;;;;;;;4970255;28;20138;-85
2023/05/13 04:05:37;;;;;;;0.20;0.20;;;;;;;;;;4963608;28;20046;-86
2023/05/13 04:08:03;;;;;;;0.20;0.20;;;;;;;;;;4951815;28;20117;-86
2023/05/13 04:10:29;;;;;;;0.20;0.20;;;;;;;;;;4949474;28;20439;-86
2023/05/13 04:12:55;;;;;;;0.10;0.10;;;;;;;;;;4967459;28;20133;-86
2023/05/13 04:15:22;;;;;;;0.10;0.10;;;;;;;;;;4947024;28;20075;-86
2023/05/13 04:17:48;;;;;;;0.17;0.17;;;;;;;;;;4954372;28;20051;-87
2023/05/13 04:20:14;;;;;;;0.10;0.10;;;;;;;;;;4941512;28;20066;-86
2023/05/13 04:22:43;;;;;;;0.17;0.17;;;;;;;;;;4947707;28;20134;-87
2023/05/13 04:25:09;;;;;;;0.10;0.10;;;;;;;;;;4978751;28;20050;-87
2023/05/13 04:27:38;;;;;;;0.20;0.20;;;;;;;;;;4977551;28;20046;-86
2023/05/13 04:30:04;;;;;;;0.10;0.10;;;;;;;;;;4967595;28;20051;-86
2023/05/13 04:32:30;;;;;;;0.10;0.10;;;;;;;;;;4956065;28;20051;-87
2023/05/13 04:34:56;;;;;;;0.10;0.10;;;;;;;;;;4939706;28;20062;-87
2023/05/13 04:37:22;;;;;;;0.10;0.10;;;;;;;;;;4951708;29;20062;-87
2023/05/13 04:39:49;;;;;;;0.17;0.17;;;;;;;;;;4949307;29;20094;-86
2023/05/13 04:42:15;;;;;;;0.20;0.20;;;;;;;;;;4951609;29;20491;-86
2023/05/13 04:44:41;;;;;;;0.17;0.17;;;;;;;;;;4949804;29;20070;-87
2023/05/13 04:47:07;;;;;;;0.13;0.13;;;;;;;;;;4949668;29;20043;-87
2023/05/13 04:49:33;;;;;;;0.10;0.10;;;;;;;;;;4934635;29;20058;-86
2023/05/13 04:52:03;;;;;;;0.20;0.20;;;;;;;;;;4939594;29;20036;-86
2023/05/13 04:54:29;;;;;;;0.10;0.10;;;;;;;;;;4935335;29;20047;-88
2023/05/13 04:56:58;;;;;;;0.10;0.10;;;;;;;;;;4953854;29;20124;-86
2023/05/13 04:59:24;;;;;;;0.20;0.20;;;;;;;;;;4935172;29;20491;-86
2023/05/13 05:01:50;;;;;;;0.10;0.10;;;;;;;;;;4949272;29;20550;-86
2023/05/13 05:04:16;;;;;;;0.20;0.20;;;;;;;;;;4955155;29;20172;-86
2023/05/13 05:06:42;;;;;;;0.10;0.10;;;;;;;;;;4955921;29;20047;-86
2023/05/13 05:09:11;;;;;;;0.10;0.10;;;;;;;;;;4949341;29;20102;-86
2023/05/13 05:11:37;;;;;;;0.20;0.20;;;;;;;;;;4937625;29;20075;-86
2023/05/13 05:14:04;;;;;;;0.10;0.10;;;;;;;;;;4941352;29;20050;-86
2023/05/13 05:16:29;;;;;;;0.10;0.10;;;;;;;;;;4945002;28;20122;-86
2023/05/13 05:18:55;;;;;;;0.10;0.10;;;;;;;;;;4942276;28;20135;-85
2023/05/13 05:21:22;;;;;;;0.20;0.20;;;;;;;;;;4948259;28;20590;-87
2023/05/13 05:23:48;;;;;;;0.10;0.10;;;;;;;;;;4942279;28;20058;-87
2023/05/13 05:26:14;;;;;;;0.20;0.20;;;;;;;;;;4942025;28;20046;-86
2023/05/13 05:28:41;;;;;;;0.10;0.10;;;;;;;;;;4940540;28;20132;-86
2023/05/13 05:31:08;;;;;;;0.20;0.20;;;;;;;;;;4928635;29;20106;-86
2023/05/13 05:33:35;;;;;;;0.10;0.10;;;;;;;;;;4952934;29;20058;-86
2023/05/13 05:36:01;;;;;;;0.20;0.20;;;;;;;;;;4957221;28;20475;-87
2023/05/13 05:38:27;;;;;;;0.20;0.20;;;;;;;;;;4965132;28;20047;-86
2023/05/13 05:40:55;;;;;;;0.10;0.10;;;;;;;;;;4953636;28;20047;-86
2023/05/13 05:43:21;;;;;;;0.20;0.20;;;;;;;;;;4975503;28;20054;-86
2023/05/13 05:45:47;;;;;;;0.10;0.10;;;;;;;;;;4974249;28;20049;-86
2023/05/13 05:48:13;;;;;;;0.20;0.20;;;;;;;;;;4957136;28;20051;-87
2023/05/13 05:50:40;;;;;;;0.10;0.10;;;;;;;;;;4955397;28;20046;-87
2023/05/13 05:53:06;;;;;;;0.20;0.20;;;;;;;;;;4957839;28;20050;-87
2023/05/13 05:55:32;;;;;;;0.20;0.20;;;;;;;;;;4957939;28;20499;-89
2023/05/13 05:58:04;;;;;;;0.20;0.20;;;;;;;;;;4968523;28;20407;-87
2023/05/13 06:00:30;;;;;;;;;;;;;;;;;;4961961;28;20541;-87
2023/05/13 06:02:56;;;;;;;0.20;0.20;;;;;;;;;;4980379;28;19945;-88
2023/05/13 06:05:22;;;;;;;0.20;0.20;;;;;;;;;;4986298;28;20031;-89
2023/05/13 06:07:48;;;;;;;0.10;0.10;;;;;;;;;;4985949;28;20038;-86
2023/05/13 06:10:14;;;;;;;0.10;0.10;;;;;;;;;;4965489;28;20076;-90
2023/05/13 06:12:49;;;;;;;0.10;0.10;;;;;;;;;;4947177;28;20067;-87
2023/05/13 06:15:15;;;;;;;0.20;0.20;;;;;;;;;;4951581;28;20051;-90
2023/05/13 06:17:42;;;;;;;0.10;0.10;;;;;;;;;;4948826;28;20062;-89
2023/05/13 06:20:08;;;;;;;0.10;0.10;;;;;;;;;;4953422;28;20085;-89
2023/05/13 06:22:34;;;;;;;0.10;0.10;;;;;;;;;;4954426;28;20039;-89
2023/05/13 06:25:00;;;;;;;0.10;0.10;;;;;;;;;;4948652;28;20134;-89
2023/05/13 06:27:35;;;;;;;0.25;0.25;;;;;;;;;;4955468;28;20043;-89
2023/05/13 06:30:01;;;;;;;0.13;0.13;;;;;;;;;;4958761;28;20075;-88
2023/05/13 06:32:27;;;;;;;0.20;0.20;;;;;;;;;;4973170;28;20499;-87
2023/05/13 06:34:53;;;;;;;0.10;0.10;;;;;;;;;;4953855;28;20053;-89
2023/05/13 06:37:20;;;;;;;0.10;0.10;;;;;;;;;;4970415;28;20050;-89
2023/05/13 06:39:46;;;;;;;0.10;0.10;;;;;;;;;;4954760;28;20066;-88
2023/05/13 06:42:12;;;;;;;0.20;0.20;;;;;;;;;;4944830;29;20055;-87
2023/05/13 06:44:38;;;;;;;0.10;0.10;;;;;;;;;;4950664;28;20058;-89
2023/05/13 06:47:04;;;;;;;0.20;0.20;;;;;;;;;;4947071;28;20050;-91
2023/05/13 06:49:32;;;;;;;0.20;0.20;;;;;;;;;;4942660;28;20101;-85
2023/05/13 06:51:58;;;;;;;0.10;0.10;;;;;;;;;;4967258;28;20050;-86
2023/05/13 06:54:26;;;;;;;0.10;0.10;;;;;;;;;;4972603;28;20053;-84
2023/05/13 06:56:52;;;;;;;0.20;0.20;;;;;;;;;;4966151;28;20051;-86
2023/05/13 06:59:20;;;;;;;0.10;0.10;;;;;;;;;;4953066;28;20061;-87
2023/05/13 07:01:46;;;;;;;0.10;0.10;;;;;;;;;;4971311;28;20472;-88
2023/05/13 07:04:12;;;;;;;0.20;0.20;;;;;;;;;;4955984;28;20363;-87
2023/05/13 07:06:38;;;;;;;0.13;0.13;;;15.00;99.90;;;;;;4950069;28;20078;-87
2023/05/13 07:09:03;;;;;;;0.15;0.15;;;14.30;99.90;;;;;;4949610;28;20151;-86
2023/05/13 07:11:29;;;;;;;0.20;0.20;;;14.30;99.90;;;;;;4966167;28;20487;-89
2023/05/13 07:13:55;;;;;;;0.17;0.17;;;14.30;99.90;;;;;;4971899;28;20062;-89
2023/05/13 07:16:23;;;;;;;0.20;0.20;;;14.30;99.90;;;;;;4970656;28;20462;-88
2023/05/13 07:18:49;;;;;;;0.15;0.15;;;14.40;99.90;;;;;;4960560;28;20077;-88
2023/05/13 07:21:15;;;;;;;0.10;0.10;;;14.40;99.90;;;;;;4936875;29;20075;-89
2023/05/13 07:23:41;;;;;;;0.13;0.13;;;14.50;99.90;;;;;;4936808;28;20093;-90
2023/05/13 07:26:07;;;;;;;0.10;0.10;;;14.50;99.90;;;;;;4946784;28;20441;-91
2023/05/13 07:28:32;;;;;;;0.20;0.20;;;14.60;99.90;;;;;;4954623;28;20053;-88
2023/05/13 07:30:58;;;;;;;0.10;0.10;;;14.60;99.90;;;;;;4959183;28;20043;-87
2023/05/13 07:33:24;;;;;;;0.10;0.10;;;14.70;99.90;;;;;;4955117;28;20130;-87
2023/05/13 07:35:49;;;;;;;0.20;0.20;;;14.80;99.90;;;;;;4953585;28;20444;-88
2023/05/13 07:38:15;;;;;;;0.15;0.15;;;14.80;99.90;;;;;;4951210;28;20142;-87
2023/05/13 07:40:41;;;;;;;0.20;0.20;;;14.80;99.90;;;;;;4955261;28;20407;-87
2023/05/13 07:43:07;;;;;;;0.20;0.20;;;14.90;99.90;;;;;;4989988;28;20086;-88
2023/05/13 07:45:33;;;;;;;0.10;0.10;;;15.10;99.90;;;;;;4978563;28;20038;-87
2023/05/13 07:47:59;;;;;;;0.10;0.10;;;15.00;99.90;;;;;;4971110;28;20039;-89
2023/05/13 07:50:25;;;;;;;0.10;0.10;;;15.10;99.90;;;;;;4965838;28;20041;-88
2023/05/13 07:52:53;;;;;;;0.10;0.10;;;15.10;99.90;;;;;;4973808;28;20042;-87
2023/05/13 07:55:20;;;;;;;0.20;0.20;;;15.20;99.90;;;;;;4971036;28;20053;-87
2023/05/13 07:57:45;;;;;;;0.10;0.10;;;15.30;99.90;;;;;;4961711;28;20081;-87
2023/05/13 08:00:11;;;;;;;0.20;0.20;;;15.30;99.90;;;;;;4952037;28;20118;-88
2023/05/13 08:02:38;;;;;;;0.15;0.15;;;15.40;99.90;;;;;;4956100;28;20100;-87
2023/05/13 08:05:04;;;;;;;0.13;0.13;;;15.40;99.90;;;;;;4956304;28;20093;-87
2023/05/13 08:07:30;;;;;;;0.10;0.10;;;15.50;99.90;;;;;;4974534;28;20093;-88
2023/05/13 08:09:56;;;;;;;0.20;0.20;;;15.50;99.90;;;;;;4954324;28;20636;-87
2023/05/13 08:12:21;;;;;;;0.10;0.10;;;15.60;99.90;;;;;;4946339;28;20383;-90
2023/05/13 08:14:47;;;;;;;0.13;0.13;;;15.80;99.90;;;;;;4954232;28;20050;-89
2023/05/13 08:17:13;;;;;;;0.10;0.10;;;15.70;99.90;;;;;;4962839;28;20053;-86
2023/05/13 08:19:39;;;;;;;0.10;0.10;;;15.80;99.90;;;;;;4963354;28;20042;-88
2023/05/13 08:22:05;;;;;;;0.10;0.10;;;15.80;99.90;;;;;;4962486;28;20042;-89
2023/05/13 08:24:31;;;;;;;0.10;0.10;;;15.90;99.90;;;;;;4951283;28;20180;-91
2023/05/13 08:27:02;;;;;;;0.17;0.17;;;16.00;99.90;;;;;;4967844;28;20039;-89
2023/05/13 08:29:28;;;;;;;0.20;0.20;;;16.00;99.90;;;;;;4951212;28;20547;-85
2023/05/13 08:31:54;;;;;;;0.20;0.20;;;16.10;99.90;;;;;;4963171;28;20125;-91
2023/05/13 08:34:20;;;;;;;0.10;0.10;;;16.20;99.90;;;;;;4954030;28;20058;-85
2023/05/13 08:36:49;;;;;;;0.10;0.10;;;16.20;99.90;;;;;;4946838;28;20400;-86
2023/05/13 08:39:14;;;;;;;0.10;0.10;;;16.30;99.90;;;;;;4962484;28;20039;-86
2023/05/13 08:41:43;;;;;;;0.15;0.15;;;16.40;99.90;;;;;;4970022;28;20039;-85
2023/05/13 08:44:12;;;;;;;0.20;0.20;;;16.40;99.90;;;;;;4971469;28;20127;-85
2023/05/13 08:46:41;;;;;;;0.20;0.20;;;16.50;99.90;;;;;;4948534;28;20050;-87
2023/05/13 08:49:08;;;;;;;0.10;0.10;;;16.60;99.90;;;;;;4943648;28;20047;-86
2023/05/13 08:51:34;;;;;;;0.10;0.10;;;16.60;99.90;;;;;;4961086;28;20039;-88
2023/05/13 08:54:05;;;;;;;0.10;0.10;;;16.60;99.90;;;;;;4946085;28;20394;-88
2023/05/13 08:56:31;;;;;;;0.20;0.20;;;16.70;99.90;;;;;;4936975;28;20049;-87
2023/05/13 08:58:56;;;;;;;0.20;0.20;;;16.80;99.90;;;;;;4960380;28;20039;-87
2023/05/13 09:01:23;;;;;;;0.13;0.13;;;16.80;99.90;;;;;;4940515;28;20043;-88
2023/05/13 09:04:03;;;;;;;0.10;0.10;;;16.90;99.90;;;;;;4971570;28;20050;-85
2023/05/13 09:06:29;;;;;;;0.15;0.15;;;17.00;99.90;;;;;;4967069;28;20051;-88
2023/05/13 09:08:55;;;;;;;0.20;0.20;;;17.00;99.90;;;;;;4937428;29;20475;-91
2023/05/13 09:11:21;;;;;;;0.10;0.10;;;17.10;99.90;;;;;;4936875;28;20535;-87
2023/05/13 09:14:01;;;;;;;0.20;0.20;;;17.10;99.90;;;;;;4943689;28;20070;-89
2023/05/13 09:16:27;;;;;;;0.20;0.20;;;17.20;99.90;;;;;;4953023;28;20037;-86
2023/05/13 09:19:03;;;;;;;0.10;0.10;;;17.20;99.90;;;;;;4977674;28;20029;-89
2023/05/13 09:21:30;;;;;;;0.10;0.10;;;17.30;99.90;;;;;;4970724;28;20047;-88
2023/05/13 09:24:09;;;;;;;0.20;0.20;;;17.30;99.90;;;;;;4980275;28;20054;-88
2023/05/13 09:26:35;;;;;;;0.10;0.10;;;17.40;99.90;;;;;;4949119;28;20074;-85
2023/05/13 09:29:24;;;;;;;0.20;0.20;;;17.40;99.90;;;;;;4939448;29;20055;-90
2023/05/13 09:32:05;;;;;;;0.10;0.10;;;17.50;99.90;;;;;;4936176;29;20070;-89
2023/05/13 09:34:33;;;;;;;0.20;0.20;;;17.50;99.90;;;;;;4951833;28;20422;-86
2023/05/13 09:37:03;;;;;;;0.10;0.10;;;17.60;99.90;;;;;;4965185;28;20054;-87
2023/05/13 09:39:30;;;;;;;0.10;0.10;;;17.60;99.90;;;;;;4973361;28;20460;-87
2023/05/13 09:41:56;;;;;;;0.20;0.20;;;17.80;99.90;;;;;;4957341;28;20042;-87
2023/05/13 09:44:28;;;;;;;0.20;0.20;;;17.80;99.90;;;;;;4957123;28;20047;-87
2023/05/13 09:46:57;;;;;;;0.10;0.10;;;17.80;99.90;;;;;;4954336;28;20050;-89
2023/05/13 09:49:25;;;;;;;0.10;0.10;;;17.90;99.90;;;;;;4968784;28;20047;-87
2023/05/13 09:51:51;;;;;;;0.40;0.40;;;18.00;99.90;;;;;;4958227;28;20150;-89
2023/05/13 09:54:17;;;;;;;0.20;0.20;;;18.00;99.90;;;;;;4958321;28;20227;-88
2023/05/13 09:56:43;;;;;;;0.10;0.10;;;18.10;99.90;;;;;;4946625;29;20043;-90
2023/05/13 09:59:08;;;;;;;0.17;0.17;;;18.10;99.90;;;;;;4956505;29;20502;-89
2023/05/13 10:01:37;;;;;;;0.10;0.10;;;18.20;99.90;;;;;;4938719;29;20380;-89
2023/05/13 10:04:04;;;;;;;0.20;0.20;;;18.20;99.90;;;;;;4956427;29;20047;-89
2023/05/13 10:06:31;;;;;;;0.20;0.20;;;18.30;99.90;;;;;;4948880;28;20054;-90
2023/05/13 10:09:00;;;;;;;0.20;0.20;;;18.30;99.90;;;;;;4975787;28;20086;-88
2023/05/13 10:11:27;;;;;;;0.20;0.20;;;18.30;99.90;;;;;;4974634;28;20062;-90
2023/05/13 10:13:59;;;;;;;0.10;0.10;;;18.40;99.90;;;;;;4975149;28;20077;-88
2023/05/13 10:16:26;;;;;;;0.10;0.10;;;18.40;99.90;;;;;;4955741;28;20082;-87
2023/05/13 10:18:59;;;;;;;0.20;0.20;;;18.50;99.90;;;;;;4973862;28;20082;-87
2023/05/13 10:21:26;;;;;;;0.20;0.20;;;18.50;99.90;;;;;;4945028;29;20484;-88
2023/05/13 10:23:52;;;;;;;0.10;0.10;;;18.60;99.90;;;;;;4954493;28;20515;-87
2023/05/13 10:26:22;;;;;;;0.20;0.20;;;18.60;99.90;;;;;;4965105;28;20483;-87
2023/05/13 10:28:48;;;;;;;0.20;0.20;;;18.70;99.90;;;;;;4974909;28;20089;-89
2023/05/13 10:31:16;;;;;;;0.20;0.20;;;18.70;99.90;;;;;;4956193;28;20339;-91
2023/05/13 10:33:42;;;;;;;0.10;0.10;;;18.80;99.90;;;;;;4975086;28;20054;-88
2023/05/13 10:36:33;;;;;;;0.10;0.10;;;18.80;99.90;;;;;;4968647;28;20134;-90
2023/05/13 10:39:28;;;;;;;0.20;0.20;;;18.90;99.90;;;;;;4970041;28;20585;-88
2023/05/13 10:42:15;;;;;;;0.20;0.20;;;19.00;99.90;;;;;;4961135;28;20597;-89
2023/05/13 10:44:41;;;;;;;0.20;0.20;;;19.10;99.90;;;;;;4956481;28;20387;-89
2023/05/13 10:47:08;;;;;;;0.20;0.20;;;19.20;99.90;;;;;;4974547;28;20098;-86
2023/05/13 10:49:34;;;;;;;0.20;0.20;;;19.20;99.90;;;;;;4957961;28;20755;-89
2023/05/13 10:52:07;;;;;;;0.15;0.15;;;19.30;99.90;;;;;;4972487;28;20058;-88
2023/05/13 10:54:39;;;;;;;0.20;0.20;;;19.40;99.90;;;;;;4979234;28;20077;-89
2023/05/13 10:57:06;;;;;;;0.20;0.20;;;19.50;99.90;;;;;;4976237;28;20097;-91
2023/05/13 10:59:34;;;;;;;0.20;0.20;;;19.50;99.90;;;;;;4964750;28;20063;-90
2023/05/13 11:02:20;;;;;;;0.20;0.20;;;19.60;99.90;;;;;;4952817;29;20043;-92
2023/05/13 11:05:03;;;;;;;0.10;0.10;;;19.70;99.90;;;;;;4955777;28;20089;-90
2023/05/13 11:07:29;;;;;;;0.20;0.20;;;19.80;99.90;;;;;;4944695;28;20046;-89
2023/05/13 11:09:55;;;;;;;0.20;0.20;;;19.80;99.90;;;;;;4974171;28;20499;-88
2023/05/13 11:12:23;;;;;;;0.20;0.20;;;20.00;99.90;;;;;;4973855;28;20106;-87
2023/05/13 11:14:49;;;;;;;0.20;0.20;;;20.00;99.90;;;;;;4955233;28;20066;-87
2023/05/13 11:17:19;;;;;;;0.20;0.20;;;20.10;99.90;;;;;;4972763;28;20038;-90
2023/05/13 11:19:49;;;;;;;0.20;0.20;;;20.20;99.90;;;;;;4973123;28;20147;-89
2023/05/13 11:22:18;;;;;;;0.20;0.20;;;20.30;99.90;;;;;;4956749;28;20045;-88
2023/05/13 11:24:45;;;;;;;0.20;0.20;;;20.40;99.90;;;;;;4951586;28;20043;-90
2023/05/13 11:27:19;;;;;;;0.20;0.20;;;20.40;99.90;;;;;;4943392;29;20051;-94
2023/05/13 11:29:53;;;;;;;0.13;0.13;;;20.50;99.90;;;;;;4954016;29;20095;-91
2023/05/13 11:32:50;;;;;;;0.20;0.20;;;20.60;99.90;;;;;;4950071;28;20042;-89
2023/05/13 11:35:20;;;;;;;0.20;0.20;;;20.60;99.90;;;;;;4956023;28;20062;-89
2023/05/13 11:37:48;;;;;;;0.20;0.20;;;20.70;99.90;;;;;;4950369;28;20106;-91
2023/05/13 11:40:29;;;;;;;0.20;0.20;;;20.80;99.90;;;;;;4957058;28;20047;-89
2023/05/13 11:42:56;;;;;;;0.20;0.20;;;20.90;99.90;;;;;;4971647;28;20046;-93
2023/05/13 11:45:23;;;;;;;0.20;0.20;;;20.90;99.90;;;;;;4955293;28;20384;-88
2023/05/13 11:47:49;;;;;;;0.20;0.20;;;20.90;99.90;;;;;;4936473;29;20062;-89
2023/05/13 11:50:18;;;;;;;0.20;0.20;;;20.90;99.90;;;;;;4936492;28;20058;-88
2023/05/13 11:52:54;;;;;;;0.30;0.30;;;21.00;99.90;;;;;;4968462;28;20047;-88
2023/05/13 11:55:27;;;;;;;0.10;0.10;;;21.10;99.90;;;;;;4954570;28;20050;-88
2023/05/13 11:57:53;;;;;;;0.20;0.20;;;21.20;99.90;;;;;;4955431;28;20576;-88
2023/05/13 12:00:24;;;;;;;0.20;0.20;;;21.20;99.90;;;;;;4953670;28;20046;-88
2023/05/13 12:02:50;;;;;;;0.20;0.20;;;21.30;99.90;;;;;;4954278;28;20082;-89
2023/05/13 12:05:16;;;;;;;0.20;0.20;;;21.40;99.90;;;;;;4950587;28;20075;-88
2023/05/13 12:07:42;;;;;;;0.20;0.20;;;21.40;99.90;;;;;;4943175;28;20134;-91
2023/05/13 12:10:08;;;;;;;0.20;0.20;;;21.50;99.90;;;;;;4955781;28;20043;-88
2023/05/13 12:12:39;;;;;;;0.13;0.13;;;21.50;99.90;;;;;;4950662;28;20035;-88
2023/05/13 12:15:12;;;;;;;0.20;0.20;;;21.60;99.90;;;;;;4971768;28;20073;-89
2023/05/13 12:17:38;;;;;;;0.20;0.20;;;21.70;99.90;;;;;;4953500;28;20066;-88
2023/05/13 12:20:05;;;;;;;0.20;0.20;;;21.70;99.90;;;;;;4951053;28;20086;-89
2023/05/13 12:22:34;;;;;;;0.20;0.20;;;21.80;99.90;;;;;;4951615;28;20043;-88
2023/05/13 12:25:25;;;;;;;0.20;0.20;;;21.90;99.90;;;;;;4971305;28;20446;-87
2023/05/13 12:27:52;;;;;;;0.20;0.20;;;21.50;99.90;;;;;;4948654;28;20059;-90
2023/05/13 12:30:18;;;;;;;0.20;0.20;;;;;;;;;;4944973;28;20051;-89
2023/05/13 12:32:44;;;;;;;0.20;0.20;;;22.10;99.90;;;;;;4975686;28;20038;-90
2023/05/13 12:35:16;;;;;;;0.20;0.20;;;22.20;99.90;;;;;;4968778;28;20049;-89
2023/05/13 12:37:42;;;;;;;0.20;0.20;;;;;;;;;;4956804;28;20043;-91
2023/05/13 12:40:11;;;;;;;0.20;0.20;;;;;;;;;;4975208;28;20050;-93
2023/05/13 12:42:38;;;;;;;0.30;0.30;;;;;;;;;;4956085;28;20043;-89
2023/05/13 12:45:05;;;;;;;0.20;0.20;;;;;;;;;;4971790;28;20082;-88
2023/05/13 12:47:31;;;;;;;0.20;0.20;;;;;;;;;;4960190;28;20051;-89
2023/05/13 12:49:57;;;;;;;0.20;0.20;;;;;;;;;;4953524;29;20511;-89
2023/05/13 12:52:23;;;;;;;0.20;0.20;;;;;;;;;;4942208;28;20039;-90
2023/05/13 12:54:49;;;;;;;0.20;0.20;;;;;;;;;;4970598;28;20074;-90
2023/05/13 12:57:16;;;;;;;0.20;0.20;;;;;;;;;;4972898;28;20046;-93
2023/05/13 12:59:44;;;;;;;0.20;0.20;;;;;;;;;;4970683;28;20043;-93
2023/05/13 13:02:10;;;;;;;0.20;0.20;;;;;;;;;;4974111;28;20043;-93
2023/05/13 13:04:36;;;;;;;0.20;0.20;;;;;;;;;;4948470;28;20137;-93
2023/05/13 13:07:03;;;;;;;0.20;0.20;;;;;;;;;;4955129;28;20546;-90
2023/05/13 13:09:29;;;;;;;0.20;0.20;;;;;;;;;;4972448;28;20504;-89
2023/05/13 13:11:55;;;;;;;0.20;0.20;;;;;;;;;;4971597;28;21208;-91
2023/05/13 13:14:24;;;;;;;0.20;0.20;;;;;;;;;;4940942;29;20455;-91
2023/05/13 13:16:50;;;;;;;0.20;0.20;;;;;;;;;;4960069;28;20049;-86
2023/05/13 13:19:16;;;;;;;0.20;0.20;;;;;;;;;;4939817;29;20435;-89
2023/05/13 13:21:42;;;;;;;0.20;0.20;;;;;;;;;;4957312;28;20043;-88
2023/05/13 13:24:08;;;;;;;0.20;0.20;;;;;;;;;;4952568;28;20121;-88
2023/05/13 13:26:34;;;;;;;0.20;0.20;;;;;;;;;;4975792;28;20078;-90
2023/05/13 13:29:03;;;;;;;0.20;0.20;;;;;;;;;;4943110;29;20055;-90
2023/05/13 13:31:29;;;;;;;0.20;0.20;;;;;;;;;;4961608;28;20045;-90
2023/05/13 13:33:57;;;;;;;0.63;0.63;;;;;;;;;;4950179;28;20042;-90
2023/05/13 13:36:23;;;;;;;0.20;0.20;;;;;;;;;;4951006;28;20063;-91
2023/05/13 13:38:49;;;;;;;0.20;0.20;;;;;;;;;;4966976;28;20066;-91
2023/05/13 13:41:15;;;;;;;0.20;0.20;;;;;;;;;;4973885;28;20049;-91
2023/05/13 13:43:41;;;;;;;0.20;0.20;;;;;;;;;;4951874;28;20086;-89
2023/05/13 13:46:10;;;;;;;0.20;0.20;;;;;;;;;;4973356;28;20043;-91
2023/05/13 13:48:36;;;;;;;0.20;0.20;;;;;;;;;;4975608;28;20043;-90
2023/05/13 13:51:02;;;;;;;0.20;0.20;;;;;;;;;;4960085;28;20054;-89
2023/05/13 13:53:28;;;;;;;0.20;0.20;;;;;;;;;;4956299;28;20419;-90
2023/05/13 13:55:54;;;;;;;0.20;0.20;;;;;;;;;;4955866;28;20469;-90
2023/05/13 13:58:21;;;;;;;0.20;0.20;;;;;;;;;;4948793;29;20075;-89